createdAt,value
2022-08-17T00:33:42.401Z,18.65
2022-08-17T00:44:05.603Z,19.58
2022-08-17T00:54:41.828Z,20.50
2022-08-17T01:05:07.627Z,21.10
2022-08-17T01:15:34.924Z,20.98
2022-08-17T01:25:58.696Z,23.20
2022-08-17T01:36:21.036Z,24.50
2022-08-17T01:46:42.625Z,24.27
2022-08-17T01:57:04.537Z,24.73
2022-08-17T02:07:27.125Z,24.52
2022-08-17T02:17:49.135Z,24.77
2022-08-17T02:28:17.679Z,25.15
2022-08-17T02:38:40.613Z,24.27
2022-08-17T02:49:02.215Z,22.83
2022-08-17T02:59:24.369Z,26.25
2022-08-17T03:09:45.958Z,25.48
2022-08-17T03:20:08.785Z,27.95
2022-08-17T03:30:30.459Z,30.80
2022-08-17T03:40:59.056Z,30.50
2022-08-17T03:51:42.268Z,31.20
2022-08-17T04:02:11.462Z,29.65
2022-08-17T04:12:49.724Z,26.60
2022-08-17T04:23:17.635Z,28.35
2022-08-17T04:33:44.106Z,28.05
2022-08-17T04:44:05.630Z,26.45
2022-08-17T04:54:27.235Z,25.20
2022-08-17T05:04:48.743Z,24.23
2022-08-17T05:15:14.267Z,21.85
2022-08-17T05:25:39.488Z,20.67
2022-08-17T05:36:04.221Z,20.38
2022-08-17T05:46:28.816Z,20.90
2022-08-17T05:56:53.209Z,18.65
2022-08-17T06:07:25.840Z,16.33
2022-08-17T06:17:47.497Z,16.02
2022-08-17T06:28:14.672Z,15.98
2022-08-17T06:38:47.425Z,17.17
2022-08-17T06:49:21.924Z,20.38
2022-08-17T06:59:56.145Z,20.52
2022-08-17T07:10:20.311Z,22.88
2022-08-17T07:20:47.997Z,23.95
2022-08-17T07:31:13.264Z,23.90
2022-08-17T07:41:57.632Z,23.95
2022-08-17T07:52:50.594Z,21.83
2022-08-17T08:03:23.725Z,21.08
2022-08-17T08:13:49.888Z,20.50
2022-08-17T08:24:41.013Z,22.27
2022-08-17T08:35:13.574Z,21.90
2022-08-17T08:45:56.434Z,19.58
2022-08-17T08:56:29.633Z,18.52
2022-08-17T09:07:16.251Z,18.60
2022-08-17T09:18:14.939Z,16.27
2022-08-17T09:28:44.778Z,17.65
2022-08-17T09:39:12.415Z,15.68
2022-08-17T09:49:42.694Z,16.48
2022-08-17T10:00:29.291Z,13.88
2022-08-17T10:11:13.883Z,15.48
2022-08-17T10:22:00.841Z,15.75
2022-08-17T10:32:39.738Z,15.05
2022-08-17T10:43:22.908Z,15.43
2022-08-17T10:53:46.110Z,12.80
2022-08-17T11:04:27.261Z,9.60
2022-08-17T11:15:04.425Z,9.50
2022-08-17T11:25:40.593Z,12.43
2022-08-17T11:36:14.370Z,11.07
2022-08-17T11:47:12.865Z,10.60
2022-08-17T11:57:40.547Z,8.18
2022-08-17T12:08:19.998Z,7.80
2022-08-17T12:18:53.779Z,7.55
2022-08-17T12:29:18.075Z,7.28
2022-08-17T12:40:03.866Z,6.97
2022-08-17T12:50:29.144Z,6.43
2022-08-17T13:01:00.164Z,5.95
2022-08-17T13:11:24.802Z,6.50
2022-08-17T13:21:58.581Z,6.97
2022-08-17T13:32:33.484Z,6.20
2022-08-17T13:42:56.500Z,7.13
2022-08-17T13:53:24.054Z,9.48
2022-08-17T14:03:46.013Z,8.95
2022-08-17T14:14:14.433Z,8.25
2022-08-17T14:24:44.611Z,8.63
2022-08-17T14:35:09.028Z,4.57
2022-08-17T14:45:33.253Z,4.10
2022-08-17T14:55:55.176Z,3.95
2022-08-17T15:06:17.248Z,2.85
2022-08-17T15:16:39.035Z,4.20
2022-08-17T15:27:00.568Z,3.40
2022-08-17T15:37:22.377Z,3.80
2022-08-17T15:47:44.013Z,2.88
2022-08-17T15:58:06.359Z,4.30
2022-08-17T16:08:28.829Z,5.68
2022-08-17T16:18:53.610Z,6.85
2022-08-17T16:29:17.888Z,7.78
2022-08-17T16:39:39.840Z,7.60
2022-08-17T16:50:03.836Z,9.32
2022-08-17T17:00:25.418Z,9.65
2022-08-17T17:10:50.761Z,9.52
2022-08-17T17:21:25.355Z,7.43
2022-08-17T17:32:13.743Z,6.47
2022-08-17T17:42:42.632Z,6.80
2022-08-17T17:53:34.986Z,5.80
2022-08-17T18:04:21.595Z,6.88
2022-08-17T18:14:46.173Z,7.38
2022-08-17T18:25:44.795Z,8.93
2022-08-17T18:36:07.092Z,8.50
2022-08-17T18:46:35.128Z,8.15
2022-08-17T18:57:00.287Z,8.10
2022-08-17T19:07:25.073Z,7.95
2022-08-17T19:18:00.148Z,6.72
2022-08-17T19:28:36.836Z,6.38
2022-08-17T19:39:38.403Z,6.18
2022-08-17T19:50:12.078Z,6.63
2022-08-17T20:00:39.597Z,6.50
2022-08-17T20:11:09.159Z,5.97
2022-08-17T20:21:45.938Z,6.30
2022-08-17T20:32:22.468Z,5.50
2022-08-17T20:42:44.068Z,5.43
2022-08-17T20:53:09.962Z,5.43
2022-08-17T21:03:39.985Z,5.35
2022-08-17T21:14:38.005Z,5.32
2022-08-17T21:25:14.724Z,5.80
2022-08-17T21:36:17.725Z,5.68
2022-08-17T21:46:42.960Z,6.22
2022-08-17T21:57:17.485Z,6.03
2022-08-17T22:07:47.741Z,5.95
2022-08-17T22:18:21.925Z,6.28
2022-08-17T22:28:47.470Z,6.35
2022-08-17T22:39:08.930Z,6.53
2022-08-17T22:49:56.452Z,7.40
2022-08-17T23:00:49.098Z,7.43
2022-08-17T23:11:10.627Z,7.00
2022-08-17T23:21:32.214Z,7.15
2022-08-17T23:32:01.204Z,7.40
2022-08-17T23:42:23.175Z,9.63
2022-08-17T23:52:46.653Z,11.82
